createdAt,value
2017-08-21T00:09:34.215Z,11.30
2017-08-21T00:19:56.034Z,7.80
2017-08-21T00:30:18.579Z,10.53
2017-08-21T00:45:58.062Z,15.90
2017-08-21T00:56:19.886Z,7.30
2017-08-21T01:06:42.635Z,11.60
2017-08-21T01:17:04.384Z,8.73
2017-08-21T01:27:27.307Z,10.50
2017-08-21T01:37:49.041Z,6.10
2017-08-21T01:48:11.868Z,10.40
2017-08-21T01:58:34.679Z,14.20
2017-08-21T02:08:57.491Z,10.50
2017-08-21T02:19:20.364Z,11.40
2017-08-21T02:29:42.884Z,7.80
2017-08-21T02:45:22.304Z,10.03
2017-08-21T02:55:44.112Z,8.83
2017-08-21T03:06:06.024Z,14.63
2017-08-21T03:16:29.628Z,9.90
2017-08-21T03:26:52.335Z,10.33
2017-08-21T03:37:14.078Z,12.60
2017-08-21T03:47:37.611Z,11.30
2017-08-21T03:58:01.323Z,13.73
2017-08-21T04:08:24.640Z,12.50
2017-08-21T04:13:30.445Z,7.07
2017-08-21T04:23:53.240Z,15.60
2017-08-21T04:34:16.815Z,12.77
2017-08-21T04:44:38.479Z,16.97
2017-08-21T04:55:02.091Z,18.30
2017-08-21T05:00:07.901Z,9.47
2017-08-21T05:10:32.154Z,16.03
2017-08-21T05:20:55.698Z,14.40
2017-08-21T05:31:19.346Z,17.20
2017-08-21T05:46:58.878Z,15.40
2017-08-21T05:57:21.620Z,26.93
2017-08-21T06:07:45.236Z,15.57
2017-08-21T06:18:07.839Z,15.30
2017-08-21T06:23:13.641Z,10.43
2017-08-21T06:33:37.117Z,14.83
2017-08-21T06:43:59.702Z,11.23
2017-08-21T06:54:20.445Z,19.00
2017-08-21T07:04:40.391Z,10.50
2017-08-21T07:09:46.184Z,12.23
2017-08-21T07:20:06.783Z,9.07
2017-08-21T07:30:28.479Z,11.50
2017-08-21T07:46:04.039Z,9.70
2017-08-21T08:01:40.599Z,13.30
2017-08-21T08:12:02.465Z,11.07
2017-08-21T08:17:08.271Z,10.73
2017-08-21T08:27:29.636Z,9.77
2017-08-21T08:32:35.428Z,11.40
2017-08-21T08:48:13.371Z,13.23
2017-08-21T08:58:35.203Z,10.00
2017-08-21T09:08:57.051Z,10.47
2017-08-21T09:19:18.364Z,7.37
2017-08-21T09:29:40.991Z,10.38
2017-08-21T09:45:18.530Z,5.93
2017-08-21T09:55:41.216Z,8.67
2017-08-21T10:06:03.536Z,6.60
2017-08-21T10:16:23.408Z,9.30
2017-08-21T10:26:46.178Z,8.07
2017-08-21T10:37:05.968Z,11.57
2017-08-21T10:47:28.019Z,3.30
2017-08-21T10:57:50.701Z,4.90
2017-08-21T11:08:17.275Z,5.00
2017-08-21T11:18:39.857Z,2.50
2017-08-21T11:29:02.387Z,4.60
2017-08-21T11:44:41.144Z,8.27
2017-08-21T11:49:46.947Z,10.33
2017-08-21T12:00:12.630Z,5.33
2017-08-21T12:10:35.135Z,6.32
2017-08-21T12:21:10.625Z,4.03
2017-08-21T12:31:46.437Z,7.05
2017-08-21T12:42:09.855Z,3.58
2017-08-21T12:52:33.868Z,5.90
2017-08-21T13:02:59.784Z,7.22
2017-08-21T13:08:05.666Z,3.37
2017-08-21T13:18:31.068Z,3.08
2017-08-21T13:28:53.014Z,3.20
2017-08-21T13:44:45.263Z,2.80
2017-08-21T13:55:11.840Z,5.30
2017-08-21T14:05:46.508Z,7.55
2017-08-21T14:10:51.565Z,6.70
2017-08-21T14:26:35.290Z,6.10
2017-08-21T14:36:58.086Z,6.45
2017-08-21T14:47:20.762Z,3.80
2017-08-21T14:58:22.201Z,4.60
2017-08-21T15:08:47.843Z,7.25
2017-08-21T15:19:10.226Z,5.10
2017-08-21T15:29:35.070Z,4.10
2017-08-21T15:50:12.881Z,3.33
2017-08-21T16:00:35.411Z,4.60
2017-08-21T16:10:57.199Z,3.70
2017-08-21T16:21:22.737Z,4.05
2017-08-21T16:31:44.623Z,4.97
2017-08-21T16:47:23.354Z,6.70
2017-08-21T16:57:45.359Z,3.00
2017-08-21T17:08:07.185Z,4.35
2017-08-21T17:18:28.979Z,2.60
2017-08-21T17:28:52.289Z,5.57
2017-08-21T17:44:31.790Z,5.65
2017-08-21T17:54:53.634Z,4.12
2017-08-21T18:05:16.137Z,2.80
2017-08-21T18:15:37.954Z,9.87
2017-08-21T18:26:04.183Z,8.07
2017-08-21T18:36:25.657Z,5.37
2017-08-21T18:46:48.302Z,8.20
2017-08-21T18:57:10.870Z,3.00
2017-08-21T19:07:32.568Z,4.00
2017-08-21T19:17:52.656Z,8.00
2017-08-21T19:28:14.538Z,6.47
2017-08-21T19:38:36.139Z,8.40
2017-08-21T19:48:59.576Z,6.20
2017-08-21T19:59:22.189Z,8.57
2017-08-21T20:09:44.655Z,6.47
2017-08-21T20:20:08.284Z,6.07
2017-08-21T20:30:30.884Z,10.33
2017-08-21T20:46:10.342Z,8.13
2017-08-21T20:56:32.905Z,7.07
2017-08-21T21:06:55.457Z,5.60
2017-08-21T21:12:01.223Z,6.30
2017-08-21T21:22:22.989Z,9.00
2017-08-21T21:32:45.559Z,9.80
2017-08-21T21:48:24.923Z,6.10
2017-08-21T21:58:46.654Z,7.17
2017-08-21T22:09:07.715Z,6.70
2017-08-21T22:14:14.217Z,8.87
2017-08-21T22:24:36.009Z,7.53
2017-08-21T22:35:00.502Z,7.80
2017-08-21T22:45:22.421Z,7.87
2017-08-21T22:55:44.274Z,8.10
2017-08-21T23:06:06.135Z,10.87
2017-08-21T23:16:27.089Z,7.43
2017-08-21T23:26:48.822Z,9.83
2017-08-21T23:37:10.664Z,9.23
2017-08-21T23:47:33.221Z,7.70
2017-08-21T23:57:55.866Z,10.57
